Airfield :
LOGIN :

Register | Disclaimer

   EN    FR    IT 

 










Legend :    VFR   Marginal VFR   IFR   Intensive IFR   Very Intensive IFR
Visi :
Ceiling :
>= 8 km
>= 3000ft
5 to 8 km
1000 to 3000 ft
1500m to 5 km
500 to 1000 ft
800 to 1500m
200 to 500 ft
< 800m
< 200 ft
Symbols :   Thunderstorms  Fog  Heavy snow  Heavy precipitations  Wind > 20 kt
SIGMETs :     Misc.  Thunderstorms  Icing  Turbulence  Mountain Waves  Volcanic Ashes







- Airport Elevation : 325 ft
- IATA code : BES
- Download approach charts


LFRB - Brest

CURRENT METAR :
  • 200800Z AUTO 35003KT 9999 BKN047/// ///TCU 05/04 Q1014 TEMPO 4000 SHRA

EXPIRED METARs :
  • 200730Z AUTO 01004KT 9999 BKN046/// ///TCU 07/04 Q1014 TEMPO 4000 SHRA
  • 200700Z AUTO 36004KT 9999 BKN043/// OVC049/// ///TCU 07/04 Q1013 TEMPO 4000 SHRA
  • 200630Z AUTO 01007KT 9999 FEW025/// BKN037/// OVC049/// ///TCU 07/04 Q1013 TEMPO 4000 SHRA
  • 200600Z AUTO 36005KT CAVOK 06/04 Q1012 TEMPO 4000 SHRA SCT015 BKN020TCU
  • 200530Z AUTO 34005KT 9999 OVC045 06/04 Q1012 TEMPO 4000 SHRA SCT015 BKN020TCU

TAF TAF LFRB
Valid from the 20 at 06:00 until the 21 at 12:00 UTC


200500Z 2006/2112 35006KT 9999 SCT020 SCT030
TEMPO 2006/2015 4000 SHRA SCT015 BKN020TCU
ATIS : +33 2 98 32 02 71
No reported NOTAMs for that airfield.



MET'MAP, your aeronautical weather chart ! - Copyright ORBIFLY December 2007 - Disclaimer

ORBIFLY MET'MAP TEAM :

Programming & Development : Alexandra Zaïnal
Concept & Development : Baudouin d'Aumeries
Co-Development & Prog : Marc-Olivier Méhu
Technical & hardware support : Manuel Goepfert

Contact : metmap@orbifly.com




SOURCES & CREDITS :

   NOAA